sensor_id;sensor_type;location;lat;lon;timestamp;P1;durP1;ratioP1;P2;durP2;ratioP2
46983;SDS011;34732;52.112;9.366;2023-08-06T08:34:44;15.70;;;4.10;;
46983;SDS011;34732;52.112;9.366;2023-08-06T08:38:06;14.00;;;3.83;;
46983;SDS011;34732;52.112;9.366;2023-08-06T08:41:29;18.92;;;4.43;;
46983;SDS011;34732;52.112;9.366;2023-08-06T08:44:53;15.82;;;4.18;;
46983;SDS011;34732;52.112;9.366;2023-08-06T08:48:15;15.40;;;4.22;;
46983;SDS011;34732;52.112;9.366;2023-08-06T08:54:58;11.90;;;3.90;;
46983;SDS011;34732;52.112;9.366;2023-08-06T08:58:22;6.90;;;3.42;;
46983;SDS011;34732;52.112;9.366;2023-08-06T09:01:43;10.93;;;3.55;;
46983;SDS011;34732;52.112;9.366;2023-08-06T09:05:07;12.30;;;4.10;;
46983;SDS011;34732;52.112;9.366;2023-08-06T09:08:33;6.68;;;3.65;;
46983;SDS011;34732;52.112;9.366;2023-08-06T09:12:01;7.70;;;3.58;;
46983;SDS011;34732;52.112;9.366;2023-08-06T09:15:27;11.30;;;3.20;;
46983;SDS011;34732;52.112;9.366;2023-08-06T09:18:48;7.35;;;3.30;;
46983;SDS011;34732;52.112;9.366;2023-08-06T09:22:12;11.02;;;3.95;;
46983;SDS011;34732;52.112;9.366;2023-08-06T09:25:39;6.72;;;2.90;;
46983;SDS011;34732;52.112;9.366;2023-08-06T09:29:05;5.70;;;3.05;;
46983;SDS011;34732;52.112;9.366;2023-08-06T09:32:27;8.77;;;3.20;;
46983;SDS011;34732;52.112;9.366;2023-08-06T09:35:49;10.45;;;3.50;;
46983;SDS011;34732;52.112;9.366;2023-08-06T09:39:12;6.30;;;3.00;;
46983;SDS011;34732;52.112;9.366;2023-08-06T09:42:42;9.68;;;3.25;;
46983;SDS011;34732;52.112;9.366;2023-08-06T09:46:12;8.30;;;3.20;;
46983;SDS011;34732;52.112;9.366;2023-08-06T09:53:05;9.52;;;2.97;;
46983;SDS011;34732;52.112;9.366;2023-08-06T09:56:30;7.53;;;2.38;;
46983;SDS011;34732;52.112;9.366;2023-08-06T10:00:03;6.60;;;3.00;;
46983;SDS011;34732;52.112;9.366;2023-08-06T10:03:33;7.78;;;2.95;;
46983;SDS011;34732;52.112;9.366;2023-08-06T10:06:57;5.35;;;2.97;;
46983;SDS011;34732;52.112;9.366;2023-08-06T10:10:23;5.93;;;2.55;;
46983;SDS011;34732;52.112;9.366;2023-08-06T10:13:45;6.10;;;2.67;;
46983;SDS011;34732;52.112;9.366;2023-08-06T10:17:09;6.35;;;2.35;;
46983;SDS011;34732;52.112;9.366;2023-08-06T10:20:36;5.05;;;2.72;;
46983;SDS011;34732;52.112;9.366;2023-08-06T10:24:00;6.70;;;2.83;;
46983;SDS011;34732;52.112;9.366;2023-08-06T10:27:29;4.80;;;2.70;;
46983;SDS011;34732;52.112;9.366;2023-08-06T10:30:55;6.38;;;2.20;;
46983;SDS011;34732;52.112;9.366;2023-08-06T10:34:16;8.18;;;2.75;;
46983;SDS011;34732;52.112;9.366;2023-08-06T10:37:40;5.40;;;2.72;;
46983;SDS011;34732;52.112;9.366;2023-08-06T10:41:04;3.33;;;2.22;;
46983;SDS011;34732;52.112;9.366;2023-08-06T10:44:25;6.25;;;2.75;;
46983;SDS011;34732;52.112;9.366;2023-08-06T10:47:51;3.90;;;2.17;;
46983;SDS011;34732;52.112;9.366;2023-08-06T10:51:13;4.95;;;2.60;;
46983;SDS011;34732;52.112;9.366;2023-08-06T10:54:42;3.25;;;2.33;;
46983;SDS011;34732;52.112;9.366;2023-08-06T10:58:03;7.93;;;2.40;;
46983;SDS011;34732;52.112;9.366;2023-08-06T11:01:26;5.18;;;2.25;;
46983;SDS011;34732;52.112;9.366;2023-08-06T11:04:53;4.35;;;2.47;;
46983;SDS011;34732;52.112;9.366;2023-08-06T11:08:26;2.88;;;2.08;;
46983;SDS011;34732;52.112;9.366;2023-08-06T11:11:50;4.47;;;1.90;;
46983;SDS011;34732;52.112;9.366;2023-08-06T11:15:14;3.50;;;1.80;;
46983;SDS011;34732;52.112;9.366;2023-08-06T11:18:36;4.13;;;1.80;;
46983;SDS011;34732;52.112;9.366;2023-08-06T11:22:03;2.22;;;1.90;;
46983;SDS011;34732;52.112;9.366;2023-08-06T11:25:28;3.00;;;1.90;;
46983;SDS011;34732;52.112;9.366;2023-08-06T11:28:52;1.77;;;1.50;;
46983;SDS011;34732;52.112;9.366;2023-08-06T11:32:14;2.15;;;1.95;;
46983;SDS011;34732;52.112;9.366;2023-08-06T11:35:37;2.03;;;1.70;;
46983;SDS011;34732;52.112;9.366;2023-08-06T11:39:02;2.47;;;1.60;;
46983;SDS011;34732;52.112;9.366;2023-08-06T11:42:30;2.00;;;1.80;;
46983;SDS011;34732;52.112;9.366;2023-08-06T11:45:54;3.15;;;1.77;;
46983;SDS011;34732;52.112;9.366;2023-08-06T11:49:16;1.98;;;1.70;;
46983;SDS011;34732;52.112;9.366;2023-08-06T11:52:42;1.50;;;1.35;;
46983;SDS011;34732;52.112;9.366;2023-08-06T11:56:03;2.00;;;1.50;;
46983;SDS011;34732;52.112;9.366;2023-08-06T11:59:26;2.25;;;1.50;;
46983;SDS011;34732;52.112;9.366;2023-08-06T12:02:50;2.10;;;1.50;;
46983;SDS011;34732;52.112;9.366;2023-08-06T12:06:13;2.45;;;1.63;;
46983;SDS011;34732;52.112;9.366;2023-08-06T12:09:35;2.95;;;1.77;;
46983;SDS011;34732;52.112;9.366;2023-08-06T12:13:00;2.97;;;1.63;;
46983;SDS011;34732;52.112;9.366;2023-08-06T12:16:23;2.33;;;1.80;;
46983;SDS011;34732;52.112;9.366;2023-08-06T12:19:45;2.42;;;1.60;;
46983;SDS011;34732;52.112;9.366;2023-08-06T12:23:08;5.63;;;1.73;;
46983;SDS011;34732;52.112;9.366;2023-08-06T12:26:33;2.25;;;1.40;;
46983;SDS011;34732;52.112;9.366;2023-08-06T12:29:59;2.50;;;2.10;;
46983;SDS011;34732;52.112;9.366;2023-08-06T12:33:22;1.85;;;1.50;;
46983;SDS011;34732;52.112;9.366;2023-08-06T12:36:46;4.65;;;1.88;;
46983;SDS011;34732;52.112;9.366;2023-08-06T12:40:12;4.07;;;1.83;;
46983;SDS011;34732;52.112;9.366;2023-08-06T12:43:36;3.17;;;1.50;;
46983;SDS011;34732;52.112;9.366;2023-08-06T12:47:01;2.65;;;2.05;;
46983;SDS011;34732;52.112;9.366;2023-08-06T12:50:27;2.45;;;1.60;;
46983;SDS011;34732;52.112;9.366;2023-08-06T12:53:53;2.17;;;1.65;;
46983;SDS011;34732;52.112;9.366;2023-08-06T12:57:14;4.43;;;1.83;;
46983;SDS011;34732;52.112;9.366;2023-08-06T13:00:38;2.15;;;1.40;;
46983;SDS011;34732;52.112;9.366;2023-08-06T13:04:01;4.68;;;1.55;;
46983;SDS011;34732;52.112;9.366;2023-08-06T13:07:25;2.03;;;1.40;;
46983;SDS011;34732;52.112;9.366;2023-08-06T13:10:49;1.75;;;1.40;;
46983;SDS011;34732;52.112;9.366;2023-08-06T13:14:13;2.35;;;1.65;;
46983;SDS011;34732;52.112;9.366;2023-08-06T13:17:37;4.93;;;1.77;;
46983;SDS011;34732;52.112;9.366;2023-08-06T13:20:58;3.22;;;1.80;;
46983;SDS011;34732;52.112;9.366;2023-08-06T13:24:24;3.05;;;1.83;;
46983;SDS011;34732;52.112;9.366;2023-08-06T13:27:50;5.70;;;1.77;;
46983;SDS011;34732;52.112;9.366;2023-08-06T13:31:13;1.85;;;1.50;;
46983;SDS011;34732;52.112;9.366;2023-08-06T13:34:34;2.90;;;1.65;;
46983;SDS011;34732;52.112;9.366;2023-08-06T13:37:58;6.18;;;1.60;;
46983;SDS011;34732;52.112;9.366;2023-08-06T13:41:28;3.08;;;1.70;;
46983;SDS011;34732;52.112;9.366;2023-08-06T13:44:54;4.47;;;1.75;;
46983;SDS011;34732;52.112;9.366;2023-08-06T13:48:28;5.63;;;1.92;;
46983;SDS011;34732;52.112;9.366;2023-08-06T13:51:52;3.72;;;1.60;;
46983;SDS011;34732;52.112;9.366;2023-08-06T13:55:13;3.63;;;1.67;;
46983;SDS011;34732;52.112;9.366;2023-08-06T13:58:38;1.67;;;1.58;;
46983;SDS011;34732;52.112;9.366;2023-08-06T14:01:59;3.58;;;1.90;;
46983;SDS011;34732;52.112;9.366;2023-08-06T14:05:23;1.63;;;1.30;;
46983;SDS011;34732;52.112;9.366;2023-08-06T14:08:44;3.10;;;1.40;;
46983;SDS011;34732;52.112;9.366;2023-08-06T14:12:07;4.28;;;1.90;;
46983;SDS011;34732;52.112;9.366;2023-08-06T14:15:33;2.88;;;1.60;;
46983;SDS011;34732;52.112;9.366;2023-08-06T14:19:02;5.93;;;1.50;;
46983;SDS011;34732;52.112;9.366;2023-08-06T14:22:24;2.65;;;1.50;;
46983;SDS011;34732;52.112;9.366;2023-08-06T14:25:48;3.28;;;1.42;;
46983;SDS011;34732;52.112;9.366;2023-08-06T14:29:13;2.70;;;1.45;;
46983;SDS011;34732;52.112;9.366;2023-08-06T14:32:39;3.10;;;1.65;;
46983;SDS011;34732;52.112;9.366;2023-08-06T14:36:03;5.25;;;2.03;;
46983;SDS011;34732;52.112;9.366;2023-08-06T14:39:31;4.57;;;2.13;;
46983;SDS011;34732;52.112;9.366;2023-08-06T14:42:55;3.47;;;1.73;;
46983;SDS011;34732;52.112;9.366;2023-08-06T14:46:20;3.70;;;2.13;;
46983;SDS011;34732;52.112;9.366;2023-08-06T14:49:42;5.55;;;2.20;;
46983;SDS011;34732;52.112;9.366;2023-08-06T14:53:03;4.13;;;1.90;;
46983;SDS011;34732;52.112;9.366;2023-08-06T14:56:29;3.85;;;2.50;;
46983;SDS011;34732;52.112;9.366;2023-08-06T14:59:53;3.30;;;2.33;;
46983;SDS011;34732;52.112;9.366;2023-08-06T15:03:23;2.08;;;1.88;;
46983;SDS011;34732;52.112;9.366;2023-08-06T15:06:54;5.80;;;2.53;;
46983;SDS011;34732;52.112;9.366;2023-08-06T15:10:15;2.17;;;1.95;;
46983;SDS011;34732;52.112;9.366;2023-08-06T15:13:38;3.42;;;2.40;;
46983;SDS011;34732;52.112;9.366;2023-08-06T15:17:02;2.42;;;2.00;;
46983;SDS011;34732;52.112;9.366;2023-08-06T15:20:30;2.67;;;2.28;;
46983;SDS011;34732;52.112;9.366;2023-08-06T15:23:53;2.47;;;1.88;;
46983;SDS011;34732;52.112;9.366;2023-08-06T15:27:21;4.50;;;2.35;;
46983;SDS011;34732;52.112;9.366;2023-08-06T15:30:48;2.60;;;2.28;;
46983;SDS011;34732;52.112;9.366;2023-08-06T15:34:14;2.85;;;2.08;;
46983;SDS011;34732;52.112;9.366;2023-08-06T15:37:35;5.45;;;2.15;;
46983;SDS011;34732;52.112;9.366;2023-08-06T15:40:59;2.65;;;2.33;;
46983;SDS011;34732;52.112;9.366;2023-08-06T15:44:20;2.88;;;2.47;;
46983;SDS011;34732;52.112;9.366;2023-08-06T15:47:46;3.88;;;2.30;;
46983;SDS011;34732;52.112;9.366;2023-08-06T15:51:12;5.95;;;2.60;;
46983;SDS011;34732;52.112;9.366;2023-08-06T15:54:33;3.10;;;2.25;;
46983;SDS011;34732;52.112;9.366;2023-08-06T15:57:59;3.08;;;2.17;;
46983;SDS011;34732;52.112;9.366;2023-08-06T16:01:22;2.65;;;1.95;;
46983;SDS011;34732;52.112;9.366;2023-08-06T16:04:44;3.30;;;2.53;;
46983;SDS011;34732;52.112;9.366;2023-08-06T16:11:29;2.63;;;1.88;;
46983;SDS011;34732;52.112;9.366;2023-08-06T16:14:55;4.15;;;2.42;;
46983;SDS011;34732;52.112;9.366;2023-08-06T16:18:16;4.10;;;2.10;;
46983;SDS011;34732;52.112;9.366;2023-08-06T16:21:40;3.92;;;2.17;;
46983;SDS011;34732;52.112;9.366;2023-08-06T16:25:06;4.32;;;2.20;;
46983;SDS011;34732;52.112;9.366;2023-08-06T16:28:32;2.83;;;2.13;;
46983;SDS011;34732;52.112;9.366;2023-08-06T16:31:56;3.72;;;1.83;;
46983;SDS011;34732;52.112;9.366;2023-08-06T16:35:22;3.05;;;2.17;;
46983;SDS011;34732;52.112;9.366;2023-08-06T16:38:45;2.25;;;2.05;;
46983;SDS011;34732;52.112;9.366;2023-08-06T16:42:06;3.58;;;2.00;;
46983;SDS011;34732;52.112;9.366;2023-08-06T16:45:29;4.15;;;2.10;;
46983;SDS011;34732;52.112;9.366;2023-08-06T16:48:52;3.75;;;2.22;;
46983;SDS011;34732;52.112;9.366;2023-08-06T16:52:15;4.68;;;2.20;;
46983;SDS011;34732;52.112;9.366;2023-08-06T16:55:40;2.75;;;1.92;;
46983;SDS011;34732;52.112;9.366;2023-08-06T16:59:03;2.58;;;1.80;;
46983;SDS011;34732;52.112;9.366;2023-08-06T17:02:24;3.40;;;1.90;;
46983;SDS011;34732;52.112;9.366;2023-08-06T17:05:48;3.92;;;1.83;;
46983;SDS011;34732;52.112;9.366;2023-08-06T17:09:11;4.15;;;1.90;;
46983;SDS011;34732;52.112;9.366;2023-08-06T17:12:41;6.13;;;2.00;;
46983;SDS011;34732;52.112;9.366;2023-08-06T17:16:04;3.92;;;2.13;;
46983;SDS011;34732;52.112;9.366;2023-08-06T17:19:25;3.13;;;1.80;;
46983;SDS011;34732;52.112;9.366;2023-08-06T17:22:49;5.15;;;2.22;;
46983;SDS011;34732;52.112;9.366;2023-08-06T17:26:15;4.05;;;1.88;;
46983;SDS011;34732;52.112;9.366;2023-08-06T17:29:39;3.33;;;2.20;;
46983;SDS011;34732;52.112;9.366;2023-08-06T17:33:07;10.48;;;2.72;;
46983;SDS011;34732;52.112;9.366;2023-08-06T17:36:36;6.95;;;2.42;;
46983;SDS011;34732;52.112;9.366;2023-08-06T17:39:59;4.07;;;2.22;;
46983;SDS011;34732;52.112;9.366;2023-08-06T17:43:20;7.85;;;2.28;;
46983;SDS011;34732;52.112;9.366;2023-08-06T17:46:46;7.43;;;2.50;;
46983;SDS011;34732;52.112;9.366;2023-08-06T17:50:10;5.05;;;2.00;;
46983;SDS011;34732;52.112;9.366;2023-08-06T17:53:36;5.75;;;2.10;;
46983;SDS011;34732;52.112;9.366;2023-08-06T17:56:59;5.85;;;2.42;;
46983;SDS011;34732;52.112;9.366;2023-08-06T18:00:25;5.28;;;2.28;;
46983;SDS011;34732;52.112;9.366;2023-08-06T18:03:51;4.70;;;2.20;;
46983;SDS011;34732;52.112;9.366;2023-08-06T18:07:17;4.22;;;2.03;;
46983;SDS011;34732;52.112;9.366;2023-08-06T18:10:41;6.10;;;2.10;;
46983;SDS011;34732;52.112;9.366;2023-08-06T18:17:26;4.25;;;2.03;;
46983;SDS011;34732;52.112;9.366;2023-08-06T18:20:49;4.53;;;2.05;;
46983;SDS011;34732;52.112;9.366;2023-08-06T18:24:15;4.03;;;2.20;;
46983;SDS011;34732;52.112;9.366;2023-08-06T18:27:54;5.25;;;1.95;;
46983;SDS011;34732;52.112;9.366;2023-08-06T18:31:15;7.43;;;2.35;;
46983;SDS011;34732;52.112;9.366;2023-08-06T18:39:02;2.67;;;1.90;;
46983;SDS011;34732;52.112;9.366;2023-08-06T18:42:26;4.13;;;2.05;;
46983;SDS011;34732;52.112;9.366;2023-08-06T18:45:52;4.43;;;2.50;;
46983;SDS011;34732;52.112;9.366;2023-08-06T18:49:18;6.78;;;2.53;;
46983;SDS011;34732;52.112;9.366;2023-08-06T18:52:42;6.00;;;2.92;;
46983;SDS011;34732;52.112;9.366;2023-08-06T18:56:08;3.83;;;2.78;;
46983;SDS011;34732;52.112;9.366;2023-08-06T18:59:33;8.60;;;3.67;;
46983;SDS011;34732;52.112;9.366;2023-08-06T19:03:00;8.30;;;2.65;;
46983;SDS011;34732;52.112;9.366;2023-08-06T19:06:21;2.30;;;1.55;;
46983;SDS011;34732;52.112;9.366;2023-08-06T19:09:46;9.25;;;3.28;;
46983;SDS011;34732;52.112;9.366;2023-08-06T19:13:11;5.90;;;3.00;;
46983;SDS011;34732;52.112;9.366;2023-08-06T19:16:35;7.03;;;3.67;;
46983;SDS011;34732;52.112;9.366;2023-08-06T19:20:00;11.02;;;4.22;;
